sensor_id;sensor_type;location;lat;lon;timestamp;P1;durP1;ratioP1;P2;durP2;ratioP2
10687;SDS011;5392;42.688;23.298;2023-09-07T00:00:49;6.90;;;4.82;;
10687;SDS011;5392;42.688;23.298;2023-09-07T00:03:16;5.45;;;4.88;;
10687;SDS011;5392;42.688;23.298;2023-09-07T00:05:43;5.70;;;5.15;;
10687;SDS011;5392;42.688;23.298;2023-09-07T00:08:09;5.13;;;4.80;;
10687;SDS011;5392;42.688;23.298;2023-09-07T00:10:36;5.22;;;5.00;;
10687;SDS011;5392;42.688;23.298;2023-09-07T00:13:03;5.82;;;5.35;;
10687;SDS011;5392;42.688;23.298;2023-09-07T00:15:32;5.78;;;5.38;;
10687;SDS011;5392;42.688;23.298;2023-09-07T00:18:03;5.80;;;5.30;;
10687;SDS011;5392;42.688;23.298;2023-09-07T00:20:30;6.03;;;5.45;;
10687;SDS011;5392;42.688;23.298;2023-09-07T00:23:00;5.88;;;5.38;;
10687;SDS011;5392;42.688;23.298;2023-09-07T00:25:27;6.90;;;6.40;;
10687;SDS011;5392;42.688;23.298;2023-09-07T00:27:54;6.85;;;6.32;;
10687;SDS011;5392;42.688;23.298;2023-09-07T00:30:20;7.03;;;6.40;;
10687;SDS011;5392;42.688;23.298;2023-09-07T00:32:48;7.15;;;6.22;;
10687;SDS011;5392;42.688;23.298;2023-09-07T00:35:14;6.22;;;5.82;;
10687;SDS011;5392;42.688;23.298;2023-09-07T00:37:41;7.43;;;6.43;;
10687;SDS011;5392;42.688;23.298;2023-09-07T00:40:08;6.70;;;6.18;;
10687;SDS011;5392;42.688;23.298;2023-09-07T00:42:35;7.65;;;6.95;;
10687;SDS011;5392;42.688;23.298;2023-09-07T00:45:03;6.95;;;6.43;;
10687;SDS011;5392;42.688;23.298;2023-09-07T00:47:30;7.65;;;6.88;;
10687;SDS011;5392;42.688;23.298;2023-09-07T00:50:00;7.60;;;6.90;;
10687;SDS011;5392;42.688;23.298;2023-09-07T00:52:27;7.72;;;7.13;;
10687;SDS011;5392;42.688;23.298;2023-09-07T00:54:54;7.03;;;6.40;;
10687;SDS011;5392;42.688;23.298;2023-09-07T00:57:21;7.40;;;6.88;;
10687;SDS011;5392;42.688;23.298;2023-09-07T00:59:47;7.90;;;7.20;;
10687;SDS011;5392;42.688;23.298;2023-09-07T01:02:14;7.70;;;7.03;;
10687;SDS011;5392;42.688;23.298;2023-09-07T01:04:41;7.22;;;6.72;;
10687;SDS011;5392;42.688;23.298;2023-09-07T01:07:20;8.82;;;8.05;;
10687;SDS011;5392;42.688;23.298;2023-09-07T01:09:49;8.60;;;7.90;;
10687;SDS011;5392;42.688;23.298;2023-09-07T01:12:19;8.75;;;8.13;;
10687;SDS011;5392;42.688;23.298;2023-09-07T01:14:46;8.75;;;8.25;;
10687;SDS011;5392;42.688;23.298;2023-09-07T01:17:13;8.63;;;7.93;;
10687;SDS011;5392;42.688;23.298;2023-09-07T01:19:41;8.68;;;8.10;;
10687;SDS011;5392;42.688;23.298;2023-09-07T01:22:08;8.65;;;7.88;;
10687;SDS011;5392;42.688;23.298;2023-09-07T01:24:37;8.82;;;8.23;;
10687;SDS011;5392;42.688;23.298;2023-09-07T01:27:05;9.65;;;8.90;;
10687;SDS011;5392;42.688;23.298;2023-09-07T01:29:32;8.40;;;7.78;;
10687;SDS011;5392;42.688;23.298;2023-09-07T01:32:00;9.60;;;8.85;;
10687;SDS011;5392;42.688;23.298;2023-09-07T01:34:27;10.90;;;8.52;;
10687;SDS011;5392;42.688;23.298;2023-09-07T01:36:54;9.77;;;8.90;;
10687;SDS011;5392;42.688;23.298;2023-09-07T01:39:21;9.95;;;9.00;;
10687;SDS011;5392;42.688;23.298;2023-09-07T01:41:48;10.57;;;9.60;;
10687;SDS011;5392;42.688;23.298;2023-09-07T01:44:15;10.52;;;9.73;;
10687;SDS011;5392;42.688;23.298;2023-09-07T01:46:42;10.82;;;9.98;;
10687;SDS011;5392;42.688;23.298;2023-09-07T01:49:09;11.18;;;10.15;;
10687;SDS011;5392;42.688;23.298;2023-09-07T01:51:35;11.55;;;10.45;;
10687;SDS011;5392;42.688;23.298;2023-09-07T01:54:03;11.20;;;10.18;;
10687;SDS011;5392;42.688;23.298;2023-09-07T01:56:30;11.35;;;10.35;;
10687;SDS011;5392;42.688;23.298;2023-09-07T01:58:57;11.70;;;10.90;;
10687;SDS011;5392;42.688;23.298;2023-09-07T02:01:26;11.93;;;11.02;;
10687;SDS011;5392;42.688;23.298;2023-09-07T02:03:55;12.18;;;11.02;;
10687;SDS011;5392;42.688;23.298;2023-09-07T02:06:23;11.15;;;10.05;;
10687;SDS011;5392;42.688;23.298;2023-09-07T02:08:49;12.63;;;11.52;;
10687;SDS011;5392;42.688;23.298;2023-09-07T02:11:16;12.85;;;11.75;;
10687;SDS011;5392;42.688;23.298;2023-09-07T02:13:43;12.30;;;11.30;;
10687;SDS011;5392;42.688;23.298;2023-09-07T02:16:10;12.63;;;11.40;;
10687;SDS011;5392;42.688;23.298;2023-09-07T02:18:37;13.30;;;12.20;;
10687;SDS011;5392;42.688;23.298;2023-09-07T02:21:06;13.45;;;12.45;;
10687;SDS011;5392;42.688;23.298;2023-09-07T02:23:32;13.98;;;12.68;;
10687;SDS011;5392;42.688;23.298;2023-09-07T02:25:59;13.43;;;12.23;;
10687;SDS011;5392;42.688;23.298;2023-09-07T02:28:26;13.05;;;11.85;;
10687;SDS011;5392;42.688;23.298;2023-09-07T02:30:53;14.75;;;13.45;;
10687;SDS011;5392;42.688;23.298;2023-09-07T02:33:20;14.25;;;12.77;;
10687;SDS011;5392;42.688;23.298;2023-09-07T02:35:49;14.10;;;12.90;;
10687;SDS011;5392;42.688;23.298;2023-09-07T02:38:16;13.90;;;12.90;;
10687;SDS011;5392;42.688;23.298;2023-09-07T02:40:43;13.80;;;12.70;;
10687;SDS011;5392;42.688;23.298;2023-09-07T02:43:10;15.00;;;13.68;;
10687;SDS011;5392;42.688;23.298;2023-09-07T02:45:37;14.25;;;12.88;;
10687;SDS011;5392;42.688;23.298;2023-09-07T02:48:05;14.90;;;13.48;;
10687;SDS011;5392;42.688;23.298;2023-09-07T02:50:35;14.38;;;13.07;;
10687;SDS011;5392;42.688;23.298;2023-09-07T02:53:26;13.95;;;12.77;;
10687;SDS011;5392;42.688;23.298;2023-09-07T02:55:53;14.80;;;13.50;;
10687;SDS011;5392;42.688;23.298;2023-09-07T02:58:19;14.93;;;13.63;;
10687;SDS011;5392;42.688;23.298;2023-09-07T03:00:46;14.52;;;13.27;;
10687;SDS011;5392;42.688;23.298;2023-09-07T03:03:14;15.13;;;13.85;;
10687;SDS011;5392;42.688;23.298;2023-09-07T03:05:42;15.15;;;13.82;;
10687;SDS011;5392;42.688;23.298;2023-09-07T03:08:09;16.92;;;14.70;;
10687;SDS011;5392;42.688;23.298;2023-09-07T03:10:36;16.73;;;15.10;;
10687;SDS011;5392;42.688;23.298;2023-09-07T03:13:07;15.05;;;13.68;;
10687;SDS011;5392;42.688;23.298;2023-09-07T03:15:34;17.30;;;15.57;;
10687;SDS011;5392;42.688;23.298;2023-09-07T03:18:02;16.65;;;15.02;;
10687;SDS011;5392;42.688;23.298;2023-09-07T03:20:29;16.30;;;14.80;;
10687;SDS011;5392;42.688;23.298;2023-09-07T03:23:00;16.92;;;15.38;;
10687;SDS011;5392;42.688;23.298;2023-09-07T03:25:28;16.70;;;15.20;;
10687;SDS011;5392;42.688;23.298;2023-09-07T03:27:55;16.58;;;15.10;;
10687;SDS011;5392;42.688;23.298;2023-09-07T03:30:21;16.85;;;15.30;;
10687;SDS011;5392;42.688;23.298;2023-09-07T03:32:48;17.88;;;16.13;;
10687;SDS011;5392;42.688;23.298;2023-09-07T03:35:15;21.98;;;16.33;;
10687;SDS011;5392;42.688;23.298;2023-09-07T03:37:42;16.98;;;15.57;;
10687;SDS011;5392;42.688;23.298;2023-09-07T03:40:09;18.45;;;16.70;;
10687;SDS011;5392;42.688;23.298;2023-09-07T03:42:36;18.95;;;16.85;;
10687;SDS011;5392;42.688;23.298;2023-09-07T03:45:03;19.23;;;17.25;;
10687;SDS011;5392;42.688;23.298;2023-09-07T03:47:30;19.23;;;17.70;;
10687;SDS011;5392;42.688;23.298;2023-09-07T03:49:57;20.73;;;18.02;;
10687;SDS011;5392;42.688;23.298;2023-09-07T03:52:25;21.60;;;19.30;;
10687;SDS011;5392;42.688;23.298;2023-09-07T03:54:56;20.73;;;18.73;;
10687;SDS011;5392;42.688;23.298;2023-09-07T03:57:23;22.40;;;20.23;;
10687;SDS011;5392;42.688;23.298;2023-09-07T03:59:51;21.13;;;19.02;;
10687;SDS011;5392;42.688;23.298;2023-09-07T04:02:18;22.23;;;20.00;;
10687;SDS011;5392;42.688;23.298;2023-09-07T04:04:49;21.40;;;19.33;;
10687;SDS011;5392;42.688;23.298;2023-09-07T04:07:16;22.73;;;20.42;;
10687;SDS011;5392;42.688;23.298;2023-09-07T04:09:44;23.02;;;20.83;;
10687;SDS011;5392;42.688;23.298;2023-09-07T04:12:11;22.73;;;20.58;;
10687;SDS011;5392;42.688;23.298;2023-09-07T04:14:38;20.55;;;18.65;;
10687;SDS011;5392;42.688;23.298;2023-09-07T04:17:05;21.83;;;19.83;;
10687;SDS011;5392;42.688;23.298;2023-09-07T04:19:32;22.70;;;20.60;;
10687;SDS011;5392;42.688;23.298;2023-09-07T04:22:00;22.77;;;20.67;;
10687;SDS011;5392;42.688;23.298;2023-09-07T04:24:27;21.58;;;19.50;;
10687;SDS011;5392;42.688;23.298;2023-09-07T04:26:59;20.90;;;19.00;;
10687;SDS011;5392;42.688;23.298;2023-09-07T04:29:27;20.83;;;19.02;;
10687;SDS011;5392;42.688;23.298;2023-09-07T04:31:54;19.98;;;18.20;;
10687;SDS011;5392;42.688;23.298;2023-09-07T04:34:21;22.55;;;19.20;;
10687;SDS011;5392;42.688;23.298;2023-09-07T04:36:48;20.33;;;18.52;;
10687;SDS011;5392;42.688;23.298;2023-09-07T04:39:15;19.73;;;17.92;;
10687;SDS011;5392;42.688;23.298;2023-09-07T04:41:42;20.85;;;19.15;;
10687;SDS011;5392;42.688;23.298;2023-09-07T04:44:09;21.02;;;19.02;;
10687;SDS011;5392;42.688;23.298;2023-09-07T04:46:35;20.65;;;18.35;;
10687;SDS011;5392;42.688;23.298;2023-09-07T04:49:02;19.00;;;17.45;;
10687;SDS011;5392;42.688;23.298;2023-09-07T04:51:29;18.90;;;17.38;;
10687;SDS011;5392;42.688;23.298;2023-09-07T04:53:56;20.95;;;18.90;;
10687;SDS011;5392;42.688;23.298;2023-09-07T04:56:22;21.52;;;19.38;;
10687;SDS011;5392;42.688;23.298;2023-09-07T04:59:07;20.88;;;18.88;;
10687;SDS011;5392;42.688;23.298;2023-09-07T05:01:41;20.63;;;18.75;;
10687;SDS011;5392;42.688;23.298;2023-09-07T05:04:09;20.83;;;18.75;;
10687;SDS011;5392;42.688;23.298;2023-09-07T05:06:36;20.83;;;18.80;;
10687;SDS011;5392;42.688;23.298;2023-09-07T05:09:05;19.90;;;17.67;;
10687;SDS011;5392;42.688;23.298;2023-09-07T05:11:31;21.83;;;18.23;;
10687;SDS011;5392;42.688;23.298;2023-09-07T05:14:01;20.48;;;17.40;;
10687;SDS011;5392;42.688;23.298;2023-09-07T05:16:28;18.13;;;16.55;;
10687;SDS011;5392;42.688;23.298;2023-09-07T05:18:55;18.80;;;16.85;;
10687;SDS011;5392;42.688;23.298;2023-09-07T05:21:22;19.08;;;17.35;;
10687;SDS011;5392;42.688;23.298;2023-09-07T05:23:49;17.60;;;16.00;;
10687;SDS011;5392;42.688;23.298;2023-09-07T05:26:20;18.90;;;17.17;;
10687;SDS011;5392;42.688;23.298;2023-09-07T05:28:48;19.05;;;17.38;;
10687;SDS011;5392;42.688;23.298;2023-09-07T05:31:15;20.55;;;16.63;;
10687;SDS011;5392;42.688;23.298;2023-09-07T05:33:42;21.20;;;17.20;;
10687;SDS011;5392;42.688;23.298;2023-09-07T05:36:09;18.45;;;15.73;;
10687;SDS011;5392;42.688;23.298;2023-09-07T05:38:36;16.85;;;15.13;;
10687;SDS011;5392;42.688;23.298;2023-09-07T05:41:04;18.00;;;16.27;;
10687;SDS011;5392;42.688;23.298;2023-09-07T05:43:31;15.50;;;14.15;;
10687;SDS011;5392;42.688;23.298;2023-09-07T05:45:58;14.45;;;13.10;;
10687;SDS011;5392;42.688;23.298;2023-09-07T05:48:24;15.68;;;14.30;;
10687;SDS011;5392;42.688;23.298;2023-09-07T05:50:51;16.17;;;14.55;;
10687;SDS011;5392;42.688;23.298;2023-09-07T05:53:18;12.77;;;11.48;;
10687;SDS011;5392;42.688;23.298;2023-09-07T05:55:46;16.42;;;14.88;;
10687;SDS011;5392;42.688;23.298;2023-09-07T05:58:13;15.77;;;14.18;;
10687;SDS011;5392;42.688;23.298;2023-09-07T06:00:41;15.57;;;13.98;;
10687;SDS011;5392;42.688;23.298;2023-09-07T06:03:08;15.52;;;14.10;;
10687;SDS011;5392;42.688;23.298;2023-09-07T06:05:36;14.77;;;13.38;;
10687;SDS011;5392;42.688;23.298;2023-09-07T06:08:03;15.27;;;13.65;;
10687;SDS011;5392;42.688;23.298;2023-09-07T06:10:30;14.02;;;12.73;;
10687;SDS011;5392;42.688;23.298;2023-09-07T06:12:57;14.38;;;13.25;;
10687;SDS011;5392;42.688;23.298;2023-09-07T06:15:26;13.75;;;12.05;;
10687;SDS011;5392;42.688;23.298;2023-09-07T06:17:53;12.73;;;11.52;;
10687;SDS011;5392;42.688;23.298;2023-09-07T06:20:21;11.45;;;10.45;;
10687;SDS011;5392;42.688;23.298;2023-09-07T06:22:47;11.85;;;10.05;;
10687;SDS011;5392;42.688;23.298;2023-09-07T06:25:15;11.10;;;10.10;;
10687;SDS011;5392;42.688;23.298;2023-09-07T06:27:42;9.90;;;9.10;;
10687;SDS011;5392;42.688;23.298;2023-09-07T06:30:09;9.73;;;9.02;;
10687;SDS011;5392;42.688;23.298;2023-09-07T06:32:36;8.57;;;8.00;;
10687;SDS011;5392;42.688;23.298;2023-09-07T06:35:05;9.48;;;8.50;;
10687;SDS011;5392;42.688;23.298;2023-09-07T06:37:32;9.10;;;8.23;;
10687;SDS011;5392;42.688;23.298;2023-09-07T06:39:59;9.30;;;8.50;;
10687;SDS011;5392;42.688;23.298;2023-09-07T06:42:28;8.65;;;7.82;;
10687;SDS011;5392;42.688;23.298;2023-09-07T06:44:57;9.07;;;8.38;;
10687;SDS011;5392;42.688;23.298;2023-09-07T06:47:24;7.72;;;7.03;;
10687;SDS011;5392;42.688;23.298;2023-09-07T06:49:51;7.78;;;7.18;;
10687;SDS011;5392;42.688;23.298;2023-09-07T06:52:17;8.63;;;7.57;;
10687;SDS011;5392;42.688;23.298;2023-09-07T06:54:44;8.45;;;7.78;;
10687;SDS011;5392;42.688;23.298;2023-09-07T06:57:11;8.15;;;7.65;;
10687;SDS011;5392;42.688;23.298;2023-09-07T06:59:38;7.57;;;6.85;;
10687;SDS011;5392;42.688;23.298;2023-09-07T07:02:05;7.65;;;7.05;;
10687;SDS011;5392;42.688;23.298;2023-09-07T07:04:31;6.63;;;6.13;;
10687;SDS011;5392;42.688;23.298;2023-09-07T07:06:58;6.50;;;5.95;;
10687;SDS011;5392;42.688;23.298;2023-09-07T07:09:27;7.40;;;6.75;;
10687;SDS011;5392;42.688;23.298;2023-09-07T07:11:55;6.97;;;6.57;;
10687;SDS011;5392;42.688;23.298;2023-09-07T07:14:21;6.63;;;6.22;;
10687;SDS011;5392;42.688;23.298;2023-09-07T07:16:48;6.78;;;6.18;;
10687;SDS011;5392;42.688;23.298;2023-09-07T07:19:15;5.93;;;5.53;;
10687;SDS011;5392;42.688;23.298;2023-09-07T07:21:41;5.85;;;5.40;;
10687;SDS011;5392;42.688;23.298;2023-09-07T07:24:08;5.60;;;5.20;;
10687;SDS011;5392;42.688;23.298;2023-09-07T07:26:35;7.78;;;6.32;;
10687;SDS011;5392;42.688;23.298;2023-09-07T07:29:02;6.30;;;5.80;;
10687;SDS011;5392;42.688;23.298;2023-09-07T07:31:31;5.93;;;5.15;;
10687;SDS011;5392;42.688;23.298;2023-09-07T07:33:58;6.57;;;6.18;;
10687;SDS011;5392;42.688;23.298;2023-09-07T07:36:25;5.70;;;5.43;;
10687;SDS011;5392;42.688;23.298;2023-09-07T07:38:52;6.13;;;5.70;;
10687;SDS011;5392;42.688;23.298;2023-09-07T07:41:18;6.88;;;6.38;;
10687;SDS011;5392;42.688;23.298;2023-09-07T07:43:45;5.97;;;5.38;;
10687;SDS011;5392;42.688;23.298;2023-09-07T07:46:12;5.85;;;5.45;;
10687;SDS011;5392;42.688;23.298;2023-09-07T07:48:42;4.90;;;4.53;;
10687;SDS011;5392;42.688;23.298;2023-09-07T07:51:09;5.20;;;4.55;;
10687;SDS011;5392;42.688;23.298;2023-09-07T07:53:37;5.05;;;4.68;;
10687;SDS011;5392;42.688;23.298;2023-09-07T07:56:04;6.53;;;4.85;;
10687;SDS011;5392;42.688;23.298;2023-09-07T07:58:31;4.88;;;4.47;;
10687;SDS011;5392;42.688;23.298;2023-09-07T08:00:58;3.70;;;3.50;;
10687;SDS011;5392;42.688;23.298;2023-09-07T08:03:25;3.78;;;3.65;;
10687;SDS011;5392;42.688;23.298;2023-09-07T08:05:52;4.47;;;3.83;;
10687;SDS011;5392;42.688;23.298;2023-09-07T08:08:19;5.57;;;3.50;;
10687;SDS011;5392;42.688;23.298;2023-09-07T08:10:45;4.30;;;3.95;;
10687;SDS011;5392;42.688;23.298;2023-09-07T08:13:12;3.70;;;3.40;;
10687;SDS011;5392;42.688;23.298;2023-09-07T08:15:40;4.50;;;4.07;;
10687;SDS011;5392;42.688;23.298;2023-09-07T08:18:07;4.70;;;4.25;;
10687;SDS011;5392;42.688;23.298;2023-09-07T08:20:35;4.65;;;4.45;;
10687;SDS011;5392;42.688;23.298;2023-09-07T08:23:02;4.88;;;4.43;;
10687;SDS011;5392;42.688;23.298;2023-09-07T08:25:33;3.90;;;3.58;;
10687;SDS011;5392;42.688;23.298;2023-09-07T08:28:01;4.40;;;4.20;;
10687;SDS011;5392;42.688;23.298;2023-09-07T08:30:33;3.83;;;3.63;;
10687;SDS011;5392;42.688;23.298;2023-09-07T08:33:00;3.50;;;3.28;;
10687;SDS011;5392;42.688;23.298;2023-09-07T08:35:28;3.28;;;3.08;;
10687;SDS011;5392;42.688;23.298;2023-09-07T08:37:57;3.80;;;3.45;;
10687;SDS011;5392;42.688;23.298;2023-09-07T08:40:26;4.13;;;3.78;;
10687;SDS011;5392;42.688;23.298;2023-09-07T08:42:54;3.67;;;3.58;;
10687;SDS011;5392;42.688;23.298;2023-09-07T08:45:21;4.07;;;3.70;;
10687;SDS011;5392;42.688;23.298;2023-09-07T08:47:50;3.88;;;3.58;;
10687;SDS011;5392;42.688;23.298;2023-09-07T08:50:19;3.10;;;3.00;;
10687;SDS011;5392;42.688;23.298;2023-09-07T08:52:46;3.75;;;3.53;;
10687;SDS011;5392;42.688;23.298;2023-09-07T08:55:18;3.58;;;3.30;;
10687;SDS011;5392;42.688;23.298;2023-09-07T08:57:46;4.50;;;3.75;;
10687;SDS011;5392;42.688;23.298;2023-09-07T09:00:13;4.28;;;3.38;;
10687;SDS011;5392;42.688;23.298;2023-09-07T09:02:42;3.83;;;3.72;;
10687;SDS011;5392;42.688;23.298;2023-09-07T09:05:22;3.65;;;3.45;;
10687;SDS011;5392;42.688;23.298;2023-09-07T09:08:00;3.28;;;3.05;;
10687;SDS011;5392;42.688;23.298;2023-09-07T09:10:27;4.75;;;2.92;;
10687;SDS011;5392;42.688;23.298;2023-09-07T09:12:54;3.30;;;2.97;;
10687;SDS011;5392;42.688;23.298;2023-09-07T09:15:21;3.58;;;3.38;;
10687;SDS011;5392;42.688;23.298;2023-09-07T09:17:48;3.20;;;3.00;;
10687;SDS011;5392;42.688;23.298;2023-09-07T09:20:25;2.92;;;2.83;;
10687;SDS011;5392;42.688;23.298;2023-09-07T09:22:55;3.50;;;3.30;;
10687;SDS011;5392;42.688;23.298;2023-09-07T09:25:22;3.22;;;3.00;;
10687;SDS011;5392;42.688;23.298;2023-09-07T09:27:49;3.15;;;3.05;;
10687;SDS011;5392;42.688;23.298;2023-09-07T09:30:16;4.05;;;3.05;;
10687;SDS011;5392;42.688;23.298;2023-09-07T09:32:43;2.72;;;2.53;;
10687;SDS011;5392;42.688;23.298;2023-09-07T09:35:10;3.05;;;2.67;;
10687;SDS011;5392;42.688;23.298;2023-09-07T09:37:44;2.85;;;2.65;;
10687;SDS011;5392;42.688;23.298;2023-09-07T09:40:13;2.72;;;2.63;;
10687;SDS011;5392;42.688;23.298;2023-09-07T09:42:41;4.00;;;2.35;;
10687;SDS011;5392;42.688;23.298;2023-09-07T09:45:10;3.42;;;3.13;;
10687;SDS011;5392;42.688;23.298;2023-09-07T09:47:38;2.83;;;2.60;;
10687;SDS011;5392;42.688;23.298;2023-09-07T09:50:07;2.67;;;2.58;;
10687;SDS011;5392;42.688;23.298;2023-09-07T09:52:36;3.00;;;2.67;;
10687;SDS011;5392;42.688;23.298;2023-09-07T09:55:04;2.33;;;2.22;;
10687;SDS011;5392;42.688;23.298;2023-09-07T09:57:34;4.93;;;2.88;;
10687;SDS011;5392;42.688;23.298;2023-09-07T10:00:06;2.42;;;2.22;;
10687;SDS011;5392;42.688;23.298;2023-09-07T10:02:47;2.75;;;2.65;;
10687;SDS011;5392;42.688;23.298;2023-09-07T10:05:17;2.53;;;2.33;;
10687;SDS011;5392;42.688;23.298;2023-09-07T10:07:48;2.78;;;2.00;;
10687;SDS011;5392;42.688;23.298;2023-09-07T10:10:18;2.65;;;2.03;;
10687;SDS011;5392;42.688;23.298;2023-09-07T10:12:50;3.08;;;2.88;;
10687;SDS011;5392;42.688;23.298;2023-09-07T10:15:22;2.42;;;2.33;;
10687;SDS011;5392;42.688;23.298;2023-09-07T10:18:06;2.65;;;2.45;;
10687;SDS011;5392;42.688;23.298;2023-09-07T10:23:43;2.80;;;2.60;;
10687;SDS011;5392;42.688;23.298;2023-09-07T10:28:38;5.03;;;2.97;;
10687;SDS011;5392;42.688;23.298;2023-09-07T10:31:06;3.13;;;2.47;;
10687;SDS011;5392;42.688;23.298;2023-09-07T10:34:07;2.97;;;2.72;;
10687;SDS011;5392;42.688;23.298;2023-09-07T10:39:54;4.15;;;2.65;;
10687;SDS011;5392;42.688;23.298;2023-09-07T10:42:25;3.13;;;3.00;;
10687;SDS011;5392;42.688;23.298;2023-09-07T10:44:53;2.45;;;2.35;;
10687;SDS011;5392;42.688;23.298;2023-09-07T10:47:20;4.35;;;2.97;;
10687;SDS011;5392;42.688;23.298;2023-09-07T10:49:47;2.92;;;2.33;;
10687;SDS011;5392;42.688;23.298;2023-09-07T10:52:14;2.55;;;2.30;;
10687;SDS011;5392;42.688;23.298;2023-09-07T10:54:41;3.70;;;3.05;;
10687;SDS011;5392;42.688;23.298;2023-09-07T10:57:11;2.60;;;2.50;;
10687;SDS011;5392;42.688;23.298;2023-09-07T10:59:46;3.03;;;2.25;;
10687;SDS011;5392;42.688;23.298;2023-09-07T11:02:14;2.67;;;2.47;;
10687;SDS011;5392;42.688;23.298;2023-09-07T11:04:42;2.65;;;2.53;;
10687;SDS011;5392;42.688;23.298;2023-09-07T11:07:09;3.22;;;2.28;;
10687;SDS011;5392;42.688;23.298;2023-09-07T11:09:43;3.15;;;2.53;;
10687;SDS011;5392;42.688;23.298;2023-09-07T11:12:13;4.03;;;2.00;;
10687;SDS011;5392;42.688;23.298;2023-09-07T11:14:42;1.60;;;1.50;;
10687;SDS011;5392;42.688;23.298;2023-09-07T11:17:09;1.73;;;1.58;;
10687;SDS011;5392;42.688;23.298;2023-09-07T11:19:36;1.95;;;1.60;;
10687;SDS011;5392;42.688;23.298;2023-09-07T11:22:03;1.92;;;1.45;;
10687;SDS011;5392;42.688;23.298;2023-09-07T11:24:32;2.72;;;1.70;;
10687;SDS011;5392;42.688;23.298;2023-09-07T11:27:01;2.45;;;1.40;;
10687;SDS011;5392;42.688;23.298;2023-09-07T11:29:32;3.13;;;1.33;;
10687;SDS011;5392;42.688;23.298;2023-09-07T11:32:06;2.58;;;1.55;;
10687;SDS011;5392;42.688;23.298;2023-09-07T11:34:34;2.88;;;1.70;;
10687;SDS011;5392;42.688;23.298;2023-09-07T11:37:04;1.63;;;1.52;;
10687;SDS011;5392;42.688;23.298;2023-09-07T11:39:31;2.03;;;1.83;;
10687;SDS011;5392;42.688;23.298;2023-09-07T11:41:57;1.63;;;1.45;;
10687;SDS011;5392;42.688;23.298;2023-09-07T11:44:24;2.97;;;1.67;;
10687;SDS011;5392;42.688;23.298;2023-09-07T11:46:51;1.25;;;1.13;;
10687;SDS011;5392;42.688;23.298;2023-09-07T11:49:18;3.08;;;1.67;;
10687;SDS011;5392;42.688;23.298;2023-09-07T11:51:46;2.80;;;1.40;;
10687;SDS011;5392;42.688;23.298;2023-09-07T11:54:14;3.20;;;1.80;;
10687;SDS011;5392;42.688;23.298;2023-09-07T11:56:40;1.45;;;1.45;;
10687;SDS011;5392;42.688;23.298;2023-09-07T11:59:09;1.10;;;1.10;;
10687;SDS011;5392;42.688;23.298;2023-09-07T12:01:36;1.88;;;1.70;;
10687;SDS011;5392;42.688;23.298;2023-09-07T12:04:03;1.52;;;1.42;;
10687;SDS011;5392;42.688;23.298;2023-09-07T12:06:31;3.50;;;1.83;;
10687;SDS011;5392;42.688;23.298;2023-09-07T12:09:02;1.92;;;1.60;;
10687;SDS011;5392;42.688;23.298;2023-09-07T12:11:33;1.95;;;1.63;;
10687;SDS011;5392;42.688;23.298;2023-09-07T12:14:00;1.85;;;1.45;;
10687;SDS011;5392;42.688;23.298;2023-09-07T12:16:27;2.53;;;1.90;;
10687;SDS011;5392;42.688;23.298;2023-09-07T12:18:54;1.67;;;1.58;;
10687;SDS011;5392;42.688;23.298;2023-09-07T12:21:21;1.63;;;1.42;;
10687;SDS011;5392;42.688;23.298;2023-09-07T12:23:48;1.33;;;1.30;;
10687;SDS011;5392;42.688;23.298;2023-09-07T12:26:15;1.63;;;1.48;;
10687;SDS011;5392;42.688;23.298;2023-09-07T12:28:43;2.17;;;1.60;;
10687;SDS011;5392;42.688;23.298;2023-09-07T12:31:11;1.80;;;1.70;;
10687;SDS011;5392;42.688;23.298;2023-09-07T12:33:38;1.33;;;1.33;;
10687;SDS011;5392;42.688;23.298;2023-09-07T12:36:05;3.15;;;1.42;;
10687;SDS011;5392;42.688;23.298;2023-09-07T12:38:35;1.92;;;1.27;;
10687;SDS011;5392;42.688;23.298;2023-09-07T12:41:02;2.50;;;1.33;;
10687;SDS011;5392;42.688;23.298;2023-09-07T12:43:29;1.48;;;1.48;;
10687;SDS011;5392;42.688;23.298;2023-09-07T12:45:57;5.32;;;1.27;;
10687;SDS011;5392;42.688;23.298;2023-09-07T12:48:25;1.70;;;1.48;;
10687;SDS011;5392;42.688;23.298;2023-09-07T12:50:52;3.75;;;1.30;;
10687;SDS011;5392;42.688;23.298;2023-09-07T12:53:19;2.78;;;1.75;;
10687;SDS011;5392;42.688;23.298;2023-09-07T12:55:51;1.50;;;1.45;;
10687;SDS011;5392;42.688;23.298;2023-09-07T12:58:21;1.38;;;1.27;;
10687;SDS011;5392;42.688;23.298;2023-09-07T13:00:47;1.58;;;0.95;;
10687;SDS011;5392;42.688;23.298;2023-09-07T13:03:39;3.33;;;0.93;;
10687;SDS011;5392;42.688;23.298;2023-09-07T13:06:06;1.85;;;1.50;;
10687;SDS011;5392;42.688;23.298;2023-09-07T13:08:33;3.83;;;1.63;;
10687;SDS011;5392;42.688;23.298;2023-09-07T13:11:02;3.60;;;1.30;;
10687;SDS011;5392;42.688;23.298;2023-09-07T13:13:28;2.55;;;1.00;;
10687;SDS011;5392;42.688;23.298;2023-09-07T13:15:56;2.65;;;1.35;;
10687;SDS011;5392;42.688;23.298;2023-09-07T13:18:23;1.60;;;1.50;;
10687;SDS011;5392;42.688;23.298;2023-09-07T13:20:50;1.67;;;1.08;;
10687;SDS011;5392;42.688;23.298;2023-09-07T13:23:51;1.58;;;1.48;;
10687;SDS011;5392;42.688;23.298;2023-09-07T13:26:18;1.65;;;1.10;;
10687;SDS011;5392;42.688;23.298;2023-09-07T13:28:45;1.48;;;1.35;;
10687;SDS011;5392;42.688;23.298;2023-09-07T13:31:12;2.78;;;1.70;;
10687;SDS011;5392;42.688;23.298;2023-09-07T13:33:39;2.22;;;1.08;;
10687;SDS011;5392;42.688;23.298;2023-09-07T13:36:05;1.65;;;1.45;;
10687;SDS011;5392;42.688;23.298;2023-09-07T13:38:32;3.55;;;1.33;;
10687;SDS011;5392;42.688;23.298;2023-09-07T13:40:59;1.30;;;1.20;;
10687;SDS011;5392;42.688;23.298;2023-09-07T13:43:25;0.93;;;0.93;;
10687;SDS011;5392;42.688;23.298;2023-09-07T13:45:52;1.42;;;1.30;;
10687;SDS011;5392;42.688;23.298;2023-09-07T13:48:19;1.95;;;1.20;;
10687;SDS011;5392;42.688;23.298;2023-09-07T13:50:46;2.53;;;1.20;;
10687;SDS011;5392;42.688;23.298;2023-09-07T13:53:13;2.10;;;1.58;;
10687;SDS011;5392;42.688;23.298;2023-09-07T13:55:40;2.28;;;1.10;;
10687;SDS011;5392;42.688;23.298;2023-09-07T13:58:08;4.05;;;1.42;;
10687;SDS011;5392;42.688;23.298;2023-09-07T14:00:35;3.53;;;1.80;;
10687;SDS011;5392;42.688;23.298;2023-09-07T14:03:01;2.15;;;1.50;;
10687;SDS011;5392;42.688;23.298;2023-09-07T14:05:29;2.28;;;1.50;;
10687;SDS011;5392;42.688;23.298;2023-09-07T14:07:56;2.00;;;1.90;;
10687;SDS011;5392;42.688;23.298;2023-09-07T14:10:25;1.75;;;1.73;;
10687;SDS011;5392;42.688;23.298;2023-09-07T14:12:52;2.95;;;1.83;;
10687;SDS011;5392;42.688;23.298;2023-09-07T14:15:19;1.55;;;1.48;;
10687;SDS011;5392;42.688;23.298;2023-09-07T14:17:45;3.92;;;1.80;;
10687;SDS011;5392;42.688;23.298;2023-09-07T14:20:12;1.67;;;1.52;;
10687;SDS011;5392;42.688;23.298;2023-09-07T14:22:39;2.40;;;1.60;;
10687;SDS011;5392;42.688;23.298;2023-09-07T14:25:06;2.40;;;1.77;;
10687;SDS011;5392;42.688;23.298;2023-09-07T14:27:33;4.13;;;1.98;;
10687;SDS011;5392;42.688;23.298;2023-09-07T14:30:00;3.03;;;1.90;;
10687;SDS011;5392;42.688;23.298;2023-09-07T14:32:27;1.63;;;1.52;;
10687;SDS011;5392;42.688;23.298;2023-09-07T14:34:54;2.15;;;1.90;;
10687;SDS011;5392;42.688;23.298;2023-09-07T17:33:47;5.93;;;3.67;;
10687;SDS011;5392;42.688;23.298;2023-09-07T17:36:18;4.45;;;4.03;;
10687;SDS011;5392;42.688;23.298;2023-09-07T17:38:46;5.22;;;4.78;;
10687;SDS011;5392;42.688;23.298;2023-09-07T17:41:14;4.97;;;4.68;;
10687;SDS011;5392;42.688;23.298;2023-09-07T17:43:40;4.00;;;3.80;;
10687;SDS011;5392;42.688;23.298;2023-09-07T17:46:12;4.43;;;3.80;;
10687;SDS011;5392;42.688;23.298;2023-09-07T17:48:39;5.30;;;4.25;;